sensor_id;sensor_type;location;lat;lon;timestamp;temperature;humidity
25951;DHT22;13748;52.240;6.002;2023-08-06T00:01:46;15.90;99.90
25951;DHT22;13748;52.240;6.002;2023-08-06T00:04:13;15.90;99.90
25951;DHT22;13748;52.240;6.002;2023-08-06T00:06:40;15.90;99.90
25951;DHT22;13748;52.240;6.002;2023-08-06T00:09:07;15.90;99.90
25951;DHT22;13748;52.240;6.002;2023-08-06T00:11:34;15.90;99.90
25951;DHT22;13748;52.240;6.002;2023-08-06T00:14:01;15.90;99.90
25951;DHT22;13748;52.240;6.002;2023-08-06T00:16:28;15.90;99.90
25951;DHT22;13748;52.240;6.002;2023-08-06T00:18:54;15.90;99.90
25951;DHT22;13748;52.240;6.002;2023-08-06T00:21:21;15.80;99.90
25951;DHT22;13748;52.240;6.002;2023-08-06T00:23:48;15.80;99.90
25951;DHT22;13748;52.240;6.002;2023-08-06T00:26:32;15.80;99.90
25951;DHT22;13748;52.240;6.002;2023-08-06T00:28:59;15.90;99.90
25951;DHT22;13748;52.240;6.002;2023-08-06T00:31:26;15.80;99.90
25951;DHT22;13748;52.240;6.002;2023-08-06T00:33:53;15.80;99.90
25951;DHT22;13748;52.240;6.002;2023-08-06T00:36:19;15.70;99.90
25951;DHT22;13748;52.240;6.002;2023-08-06T00:38:46;15.70;99.90
25951;DHT22;13748;52.240;6.002;2023-08-06T00:41:13;15.70;99.90
25951;DHT22;13748;52.240;6.002;2023-08-06T00:43:40;15.70;99.90
25951;DHT22;13748;52.240;6.002;2023-08-06T00:46:07;15.80;99.90
25951;DHT22;13748;52.240;6.002;2023-08-06T00:48:34;15.70;99.90
25951;DHT22;13748;52.240;6.002;2023-08-06T00:51:01;15.70;99.90
25951;DHT22;13748;52.240;6.002;2023-08-06T00:53:28;15.70;99.90
25951;DHT22;13748;52.240;6.002;2023-08-06T00:55:55;15.80;99.90
25951;DHT22;13748;52.240;6.002;2023-08-06T00:58:22;15.90;99.90
25951;DHT22;13748;52.240;6.002;2023-08-06T01:00:49;15.80;99.90
25951;DHT22;13748;52.240;6.002;2023-08-06T01:03:17;15.90;99.90
25951;DHT22;13748;52.240;6.002;2023-08-06T01:05:44;15.80;99.90
25951;DHT22;13748;52.240;6.002;2023-08-06T01:11:17;15.90;99.90
25951;DHT22;13748;52.240;6.002;2023-08-06T01:13:47;15.90;99.90
25951;DHT22;13748;52.240;6.002;2023-08-06T01:16:18;15.90;99.90
25951;DHT22;13748;52.240;6.002;2023-08-06T01:18:47;15.90;99.90
25951;DHT22;13748;52.240;6.002;2023-08-06T01:21:16;16.00;99.90
25951;DHT22;13748;52.240;6.002;2023-08-06T01:23:43;16.00;99.90
25951;DHT22;13748;52.240;6.002;2023-08-06T01:29:01;16.00;99.90
25951;DHT22;13748;52.240;6.002;2023-08-06T01:31:32;16.00;99.90
25951;DHT22;13748;52.240;6.002;2023-08-06T01:34:01;16.00;99.90
25951;DHT22;13748;52.240;6.002;2023-08-06T01:36:30;16.00;99.90
25951;DHT22;13748;52.240;6.002;2023-08-06T01:38:57;16.00;99.90
25951;DHT22;13748;52.240;6.002;2023-08-06T01:41:24;16.00;99.90
25951;DHT22;13748;52.240;6.002;2023-08-06T01:43:51;16.00;99.90
25951;DHT22;13748;52.240;6.002;2023-08-06T01:46:18;16.10;99.90
25951;DHT22;13748;52.240;6.002;2023-08-06T01:48:44;16.00;99.90
25951;DHT22;13748;52.240;6.002;2023-08-06T01:51:12;16.00;99.90
25951;DHT22;13748;52.240;6.002;2023-08-06T01:53:39;16.00;99.90
25951;DHT22;13748;52.240;6.002;2023-08-06T01:56:07;16.00;99.90
25951;DHT22;13748;52.240;6.002;2023-08-06T01:58:34;16.00;99.90
25951;DHT22;13748;52.240;6.002;2023-08-06T02:01:01;16.00;99.90
25951;DHT22;13748;52.240;6.002;2023-08-06T02:03:28;16.10;99.90
25951;DHT22;13748;52.240;6.002;2023-08-06T02:05:56;16.00;99.90
25951;DHT22;13748;52.240;6.002;2023-08-06T02:08:23;16.10;99.90
25951;DHT22;13748;52.240;6.002;2023-08-06T02:10:49;16.00;99.90
25951;DHT22;13748;52.240;6.002;2023-08-06T02:13:18;16.10;99.90
25951;DHT22;13748;52.240;6.002;2023-08-06T02:15:45;16.10;99.90
25951;DHT22;13748;52.240;6.002;2023-08-06T02:18:15;16.20;99.90
25951;DHT22;13748;52.240;6.002;2023-08-06T02:20:56;16.10;99.90
25951;DHT22;13748;52.240;6.002;2023-08-06T02:23:26;16.00;99.90
25951;DHT22;13748;52.240;6.002;2023-08-06T02:26:03;16.00;99.90
25951;DHT22;13748;52.240;6.002;2023-08-06T02:28:32;16.00;99.90
25951;DHT22;13748;52.240;6.002;2023-08-06T02:30:59;16.10;99.90
25951;DHT22;13748;52.240;6.002;2023-08-06T02:33:26;16.00;99.90
25951;DHT22;13748;52.240;6.002;2023-08-06T02:36:01;16.00;99.90
25951;DHT22;13748;52.240;6.002;2023-08-06T02:38:30;15.90;99.90
25951;DHT22;13748;52.240;6.002;2023-08-06T02:40:58;15.90;99.90
25951;DHT22;13748;52.240;6.002;2023-08-06T02:43:24;15.90;99.90
25951;DHT22;13748;52.240;6.002;2023-08-06T02:45:51;15.90;99.90
25951;DHT22;13748;52.240;6.002;2023-08-06T02:48:18;15.90;99.90
25951;DHT22;13748;52.240;6.002;2023-08-06T02:50:45;15.90;99.90
25951;DHT22;13748;52.240;6.002;2023-08-06T02:53:11;15.90;99.90
25951;DHT22;13748;52.240;6.002;2023-08-06T02:55:46;15.90;99.90
25951;DHT22;13748;52.240;6.002;2023-08-06T02:58:16;15.90;99.90
25951;DHT22;13748;52.240;6.002;2023-08-06T03:00:44;15.90;99.90
25951;DHT22;13748;52.240;6.002;2023-08-06T03:03:11;15.90;99.90
25951;DHT22;13748;52.240;6.002;2023-08-06T03:05:39;15.80;99.90
25951;DHT22;13748;52.240;6.002;2023-08-06T03:08:05;15.80;99.90
25951;DHT22;13748;52.240;6.002;2023-08-06T03:10:32;15.80;99.90
25951;DHT22;13748;52.240;6.002;2023-08-06T03:12:59;15.80;99.90
25951;DHT22;13748;52.240;6.002;2023-08-06T03:15:29;15.70;99.90
25951;DHT22;13748;52.240;6.002;2023-08-06T03:18:03;15.80;99.90
25951;DHT22;13748;52.240;6.002;2023-08-06T03:20:36;15.80;99.90
25951;DHT22;13748;52.240;6.002;2023-08-06T03:23:04;15.80;99.90
25951;DHT22;13748;52.240;6.002;2023-08-06T03:25:30;15.80;99.90
25951;DHT22;13748;52.240;6.002;2023-08-06T03:27:57;15.80;99.90
25951;DHT22;13748;52.240;6.002;2023-08-06T03:30:25;15.80;99.90
25951;DHT22;13748;52.240;6.002;2023-08-06T03:32:52;15.80;99.90
25951;DHT22;13748;52.240;6.002;2023-08-06T03:35:19;15.80;99.90
25951;DHT22;13748;52.240;6.002;2023-08-06T03:37:46;15.60;99.90
25951;DHT22;13748;52.240;6.002;2023-08-06T03:40:13;15.60;99.90
25951;DHT22;13748;52.240;6.002;2023-08-06T03:42:40;15.60;99.90
25951;DHT22;13748;52.240;6.002;2023-08-06T03:45:10;15.60;99.90
25951;DHT22;13748;52.240;6.002;2023-08-06T03:47:37;15.60;99.90
25951;DHT22;13748;52.240;6.002;2023-08-06T03:50:08;15.60;99.90
25951;DHT22;13748;52.240;6.002;2023-08-06T03:52:37;15.60;99.90
25951;DHT22;13748;52.240;6.002;2023-08-06T03:55:05;15.60;99.90
25951;DHT22;13748;52.240;6.002;2023-08-06T03:57:32;15.60;99.90
25951;DHT22;13748;52.240;6.002;2023-08-06T03:59:59;15.70;99.90
25951;DHT22;13748;52.240;6.002;2023-08-06T04:02:31;15.70;99.90
25951;DHT22;13748;52.240;6.002;2023-08-06T04:04:58;15.70;99.90
25951;DHT22;13748;52.240;6.002;2023-08-06T04:07:25;15.70;99.90
25951;DHT22;13748;52.240;6.002;2023-08-06T04:09:58;15.70;99.90
25951;DHT22;13748;52.240;6.002;2023-08-06T04:12:40;15.70;99.90
25951;DHT22;13748;52.240;6.002;2023-08-06T04:15:08;15.70;99.90
25951;DHT22;13748;52.240;6.002;2023-08-06T04:17:35;15.70;99.90
25951;DHT22;13748;52.240;6.002;2023-08-06T04:20:02;15.70;99.90
25951;DHT22;13748;52.240;6.002;2023-08-06T04:22:35;15.70;99.90
25951;DHT22;13748;52.240;6.002;2023-08-06T04:25:02;15.70;99.90
25951;DHT22;13748;52.240;6.002;2023-08-06T04:27:37;15.70;99.90
25951;DHT22;13748;52.240;6.002;2023-08-06T04:30:10;15.70;99.90
25951;DHT22;13748;52.240;6.002;2023-08-06T04:32:40;15.70;99.90
25951;DHT22;13748;52.240;6.002;2023-08-06T04:35:08;15.70;99.90
25951;DHT22;13748;52.240;6.002;2023-08-06T04:37:35;15.60;99.90
25951;DHT22;13748;52.240;6.002;2023-08-06T04:40:06;15.70;99.90
25951;DHT22;13748;52.240;6.002;2023-08-06T04:42:33;15.70;99.90
25951;DHT22;13748;52.240;6.002;2023-08-06T04:45:08;15.80;99.90
25951;DHT22;13748;52.240;6.002;2023-08-06T04:47:34;15.80;99.90
25951;DHT22;13748;52.240;6.002;2023-08-06T04:50:03;15.70;99.90
25951;DHT22;13748;52.240;6.002;2023-08-06T04:52:30;15.80;99.90
25951;DHT22;13748;52.240;6.002;2023-08-06T04:54:58;15.80;99.90
25951;DHT22;13748;52.240;6.002;2023-08-06T04:57:27;15.80;99.90
25951;DHT22;13748;52.240;6.002;2023-08-06T04:59:54;15.80;99.90
25951;DHT22;13748;52.240;6.002;2023-08-06T05:02:22;15.80;99.90
25951;DHT22;13748;52.240;6.002;2023-08-06T05:04:49;15.80;99.90
25951;DHT22;13748;52.240;6.002;2023-08-06T05:07:16;15.80;99.90
25951;DHT22;13748;52.240;6.002;2023-08-06T05:09:43;15.80;99.90
25951;DHT22;13748;52.240;6.002;2023-08-06T05:12:09;15.80;99.90
25951;DHT22;13748;52.240;6.002;2023-08-06T05:14:36;15.80;99.90
25951;DHT22;13748;52.240;6.002;2023-08-06T05:17:03;15.90;99.90
25951;DHT22;13748;52.240;6.002;2023-08-06T05:19:31;15.90;99.90
25951;DHT22;13748;52.240;6.002;2023-08-06T05:21:58;15.90;99.90
25951;DHT22;13748;52.240;6.002;2023-08-06T05:24:25;15.90;99.90
25951;DHT22;13748;52.240;6.002;2023-08-06T05:26:52;15.90;99.90
25951;DHT22;13748;52.240;6.002;2023-08-06T05:29:19;16.00;99.90
25951;DHT22;13748;52.240;6.002;2023-08-06T05:31:46;16.00;99.90
25951;DHT22;13748;52.240;6.002;2023-08-06T05:34:13;16.00;99.90
25951;DHT22;13748;52.240;6.002;2023-08-06T05:36:41;16.00;99.90
25951;DHT22;13748;52.240;6.002;2023-08-06T05:39:07;16.00;99.90
25951;DHT22;13748;52.240;6.002;2023-08-06T05:41:34;16.20;99.90
25951;DHT22;13748;52.240;6.002;2023-08-06T05:44:01;16.10;99.90
25951;DHT22;13748;52.240;6.002;2023-08-06T05:46:30;16.10;99.90
25951;DHT22;13748;52.240;6.002;2023-08-06T05:48:57;16.20;99.90
25951;DHT22;13748;52.240;6.002;2023-08-06T05:51:25;16.10;99.90
25951;DHT22;13748;52.240;6.002;2023-08-06T05:53:52;16.20;99.90
25951;DHT22;13748;52.240;6.002;2023-08-06T05:56:19;16.20;99.90
25951;DHT22;13748;52.240;6.002;2023-08-06T05:58:46;16.30;99.90
25951;DHT22;13748;52.240;6.002;2023-08-06T06:01:14;16.20;99.90
25951;DHT22;13748;52.240;6.002;2023-08-06T06:03:41;16.20;99.90
25951;DHT22;13748;52.240;6.002;2023-08-06T06:06:10;16.20;99.90
25951;DHT22;13748;52.240;6.002;2023-08-06T06:08:37;16.30;99.90
25951;DHT22;13748;52.240;6.002;2023-08-06T06:11:05;16.30;99.90
25951;DHT22;13748;52.240;6.002;2023-08-06T06:13:32;16.50;99.90
25951;DHT22;13748;52.240;6.002;2023-08-06T06:15:59;16.40;99.90
25951;DHT22;13748;52.240;6.002;2023-08-06T06:18:26;16.50;99.90
25951;DHT22;13748;52.240;6.002;2023-08-06T06:20:53;16.50;99.90
25951;DHT22;13748;52.240;6.002;2023-08-06T06:23:20;16.50;99.90
25951;DHT22;13748;52.240;6.002;2023-08-06T06:25:48;16.60;99.90
25951;DHT22;13748;52.240;6.002;2023-08-06T06:28:16;16.60;99.90
25951;DHT22;13748;52.240;6.002;2023-08-06T06:30:43;16.70;99.90
25951;DHT22;13748;52.240;6.002;2023-08-06T06:33:10;16.80;99.90
25951;DHT22;13748;52.240;6.002;2023-08-06T06:35:37;16.90;99.90
25951;DHT22;13748;52.240;6.002;2023-08-06T06:38:05;17.00;99.90
25951;DHT22;13748;52.240;6.002;2023-08-06T06:40:33;16.90;99.90
25951;DHT22;13748;52.240;6.002;2023-08-06T06:43:01;16.90;99.90
25951;DHT22;13748;52.240;6.002;2023-08-06T06:45:34;17.00;99.90
25951;DHT22;13748;52.240;6.002;2023-08-06T06:48:03;17.10;99.90
25951;DHT22;13748;52.240;6.002;2023-08-06T06:50:30;17.10;99.90
25951;DHT22;13748;52.240;6.002;2023-08-06T06:52:57;17.20;99.90
25951;DHT22;13748;52.240;6.002;2023-08-06T06:55:24;17.20;99.90
25951;DHT22;13748;52.240;6.002;2023-08-06T06:57:51;17.30;99.90
25951;DHT22;13748;52.240;6.002;2023-08-06T07:00:18;17.40;99.90
25951;DHT22;13748;52.240;6.002;2023-08-06T07:02:45;17.30;99.90
25951;DHT22;13748;52.240;6.002;2023-08-06T07:05:12;17.30;99.90
25951;DHT22;13748;52.240;6.002;2023-08-06T07:07:39;17.20;99.90
25951;DHT22;13748;52.240;6.002;2023-08-06T07:10:06;17.20;99.90
25951;DHT22;13748;52.240;6.002;2023-08-06T07:12:33;17.20;99.90
25951;DHT22;13748;52.240;6.002;2023-08-06T07:15:00;17.20;99.90
25951;DHT22;13748;52.240;6.002;2023-08-06T07:17:27;17.20;99.90
25951;DHT22;13748;52.240;6.002;2023-08-06T07:19:54;17.20;99.90
25951;DHT22;13748;52.240;6.002;2023-08-06T07:22:21;17.30;99.90
25951;DHT22;13748;52.240;6.002;2023-08-06T07:24:49;17.30;99.90
25951;DHT22;13748;52.240;6.002;2023-08-06T07:27:15;17.30;99.90
25951;DHT22;13748;52.240;6.002;2023-08-06T07:29:42;17.40;99.90
25951;DHT22;13748;52.240;6.002;2023-08-06T07:32:09;17.40;99.90
25951;DHT22;13748;52.240;6.002;2023-08-06T07:34:36;17.60;99.90
25951;DHT22;13748;52.240;6.002;2023-08-06T07:37:03;17.70;99.90
25951;DHT22;13748;52.240;6.002;2023-08-06T07:39:30;17.80;99.90
25951;DHT22;13748;52.240;6.002;2023-08-06T07:41:57;17.80;99.90
25951;DHT22;13748;52.240;6.002;2023-08-06T07:44:24;18.10;99.90
25951;DHT22;13748;52.240;6.002;2023-08-06T07:46:51;18.20;99.90
25951;DHT22;13748;52.240;6.002;2023-08-06T07:49:18;18.50;99.90
25951;DHT22;13748;52.240;6.002;2023-08-06T07:51:46;18.60;99.90
25951;DHT22;13748;52.240;6.002;2023-08-06T07:54:13;18.80;99.90
25951;DHT22;13748;52.240;6.002;2023-08-06T07:56:40;19.00;99.90
25951;DHT22;13748;52.240;6.002;2023-08-06T07:59:06;19.10;99.90
25951;DHT22;13748;52.240;6.002;2023-08-06T08:01:33;19.20;99.90
25951;DHT22;13748;52.240;6.002;2023-08-06T08:04:00;19.30;99.90
25951;DHT22;13748;52.240;6.002;2023-08-06T08:06:27;19.50;99.90
25951;DHT22;13748;52.240;6.002;2023-08-06T08:08:54;19.60;99.90
25951;DHT22;13748;52.240;6.002;2023-08-06T08:11:21;19.60;99.90
25951;DHT22;13748;52.240;6.002;2023-08-06T08:13:48;19.80;99.90
25951;DHT22;13748;52.240;6.002;2023-08-06T08:16:15;19.90;99.90
25951;DHT22;13748;52.240;6.002;2023-08-06T08:18:42;19.90;99.90
25951;DHT22;13748;52.240;6.002;2023-08-06T08:21:10;20.00;99.90
25951;DHT22;13748;52.240;6.002;2023-08-06T08:23:37;20.10;99.90
25951;DHT22;13748;52.240;6.002;2023-08-06T08:26:05;20.10;99.90
25951;DHT22;13748;52.240;6.002;2023-08-06T08:28:32;20.10;99.90
25951;DHT22;13748;52.240;6.002;2023-08-06T08:30:59;20.10;99.90
25951;DHT22;13748;52.240;6.002;2023-08-06T08:33:26;20.10;99.90
25951;DHT22;13748;52.240;6.002;2023-08-06T08:35:53;20.10;99.90
25951;DHT22;13748;52.240;6.002;2023-08-06T08:38:20;20.20;99.90
25951;DHT22;13748;52.240;6.002;2023-08-06T08:40:51;20.40;99.90
25951;DHT22;13748;52.240;6.002;2023-08-06T08:43:21;20.50;99.90
25951;DHT22;13748;52.240;6.002;2023-08-06T08:45:51;20.50;99.90
25951;DHT22;13748;52.240;6.002;2023-08-06T08:48:19;20.60;99.90
25951;DHT22;13748;52.240;6.002;2023-08-06T08:50:47;20.70;99.90
25951;DHT22;13748;52.240;6.002;2023-08-06T08:53:16;20.70;99.90
25951;DHT22;13748;52.240;6.002;2023-08-06T08:55:48;20.80;99.90
25951;DHT22;13748;52.240;6.002;2023-08-06T08:58:15;20.80;99.90
25951;DHT22;13748;52.240;6.002;2023-08-06T09:00:43;21.00;99.90
25951;DHT22;13748;52.240;6.002;2023-08-06T09:03:12;21.00;99.90
25951;DHT22;13748;52.240;6.002;2023-08-06T09:05:42;20.90;99.90
25951;DHT22;13748;52.240;6.002;2023-08-06T09:08:12;20.90;99.90
25951;DHT22;13748;52.240;6.002;2023-08-06T09:10:43;20.80;99.90
25951;DHT22;13748;52.240;6.002;2023-08-06T09:13:13;20.70;99.90
25951;DHT22;13748;52.240;6.002;2023-08-06T09:15:40;20.50;99.90
25951;DHT22;13748;52.240;6.002;2023-08-06T09:18:10;20.30;99.90
25951;DHT22;13748;52.240;6.002;2023-08-06T09:20:41;20.20;99.90
25951;DHT22;13748;52.240;6.002;2023-08-06T09:23:08;20.20;99.90
25951;DHT22;13748;52.240;6.002;2023-08-06T09:25:39;20.20;99.90
25951;DHT22;13748;52.240;6.002;2023-08-06T09:28:07;20.10;99.90
25951;DHT22;13748;52.240;6.002;2023-08-06T09:30:36;20.00;99.90
25951;DHT22;13748;52.240;6.002;2023-08-06T09:33:07;19.90;99.90
25951;DHT22;13748;52.240;6.002;2023-08-06T09:35:35;19.80;99.90
25951;DHT22;13748;52.240;6.002;2023-08-06T09:38:10;19.70;99.90
25951;DHT22;13748;52.240;6.002;2023-08-06T09:40:40;19.70;99.90
25951;DHT22;13748;52.240;6.002;2023-08-06T09:43:11;19.70;99.90
25951;DHT22;13748;52.240;6.002;2023-08-06T09:45:38;19.80;99.90
25951;DHT22;13748;52.240;6.002;2023-08-06T09:48:07;19.90;99.90
25951;DHT22;13748;52.240;6.002;2023-08-06T09:50:36;19.90;99.90
25951;DHT22;13748;52.240;6.002;2023-08-06T09:53:05;20.10;99.90
25951;DHT22;13748;52.240;6.002;2023-08-06T09:55:33;20.10;99.90
25951;DHT22;13748;52.240;6.002;2023-08-06T09:58:00;20.30;99.90
25951;DHT22;13748;52.240;6.002;2023-08-06T10:00:28;20.40;99.90
25951;DHT22;13748;52.240;6.002;2023-08-06T10:03:00;20.50;99.90
25951;DHT22;13748;52.240;6.002;2023-08-06T10:05:28;20.50;99.90
25951;DHT22;13748;52.240;6.002;2023-08-06T10:07:55;20.60;99.90
25951;DHT22;13748;52.240;6.002;2023-08-06T10:10:24;20.70;99.90
25951;DHT22;13748;52.240;6.002;2023-08-06T10:12:59;20.70;99.90
25951;DHT22;13748;52.240;6.002;2023-08-06T10:15:31;20.80;99.90
25951;DHT22;13748;52.240;6.002;2023-08-06T10:17:59;20.90;99.90
25951;DHT22;13748;52.240;6.002;2023-08-06T10:20:33;20.80;99.90
25951;DHT22;13748;52.240;6.002;2023-08-06T10:23:05;20.70;99.90
25951;DHT22;13748;52.240;6.002;2023-08-06T10:25:33;20.60;99.90
25951;DHT22;13748;52.240;6.002;2023-08-06T10:28:07;20.60;99.90
25951;DHT22;13748;52.240;6.002;2023-08-06T10:30:42;20.60;99.90
25951;DHT22;13748;52.240;6.002;2023-08-06T10:33:10;20.70;99.90
25951;DHT22;13748;52.240;6.002;2023-08-06T10:35:44;20.80;99.90
25951;DHT22;13748;52.240;6.002;2023-08-06T10:38:14;20.90;99.90
25951;DHT22;13748;52.240;6.002;2023-08-06T10:45:57;21.10;99.90
25951;DHT22;13748;52.240;6.002;2023-08-06T10:48:33;21.10;99.90
25951;DHT22;13748;52.240;6.002;2023-08-06T10:51:01;21.10;99.90
25951;DHT22;13748;52.240;6.002;2023-08-06T10:53:28;21.20;99.90
25951;DHT22;13748;52.240;6.002;2023-08-06T10:56:00;21.40;99.90
25951;DHT22;13748;52.240;6.002;2023-08-06T10:58:33;21.50;99.90
25951;DHT22;13748;52.240;6.002;2023-08-06T11:01:00;21.70;99.90
25951;DHT22;13748;52.240;6.002;2023-08-06T11:03:28;21.80;99.90
25951;DHT22;13748;52.240;6.002;2023-08-06T11:05:55;21.70;99.90
25951;DHT22;13748;52.240;6.002;2023-08-06T11:08:32;21.70;99.90
25951;DHT22;13748;52.240;6.002;2023-08-06T11:11:13;21.70;99.90
25951;DHT22;13748;52.240;6.002;2023-08-06T11:13:41;21.70;99.90
25951;DHT22;13748;52.240;6.002;2023-08-06T11:16:09;21.60;99.90
25951;DHT22;13748;52.240;6.002;2023-08-06T11:18:36;21.50;99.90
25951;DHT22;13748;52.240;6.002;2023-08-06T11:21:04;21.50;99.90
25951;DHT22;13748;52.240;6.002;2023-08-06T11:23:31;21.40;99.90
25951;DHT22;13748;52.240;6.002;2023-08-06T11:25:58;21.50;99.90
25951;DHT22;13748;52.240;6.002;2023-08-06T11:28:25;21.60;99.90
25951;DHT22;13748;52.240;6.002;2023-08-06T11:30:52;21.70;99.90
25951;DHT22;13748;52.240;6.002;2023-08-06T11:33:26;21.70;99.90
25951;DHT22;13748;52.240;6.002;2023-08-06T11:35:57;21.70;99.90
25951;DHT22;13748;52.240;6.002;2023-08-06T11:38:26;21.70;99.90
25951;DHT22;13748;52.240;6.002;2023-08-06T11:40:53;21.90;99.90
25951;DHT22;13748;52.240;6.002;2023-08-06T11:43:22;21.90;99.90
25951;DHT22;13748;52.240;6.002;2023-08-06T11:45:49;22.00;99.90
25951;DHT22;13748;52.240;6.002;2023-08-06T11:48:17;21.90;99.90
25951;DHT22;13748;52.240;6.002;2023-08-06T11:50:45;21.90;99.90
25951;DHT22;13748;52.240;6.002;2023-08-06T11:53:13;22.00;99.90
25951;DHT22;13748;52.240;6.002;2023-08-06T11:55:41;22.00;99.90
25951;DHT22;13748;52.240;6.002;2023-08-06T11:58:10;22.00;99.90
25951;DHT22;13748;52.240;6.002;2023-08-06T12:00:42;22.00;99.90
25951;DHT22;13748;52.240;6.002;2023-08-06T12:03:10;22.00;99.90
25951;DHT22;13748;52.240;6.002;2023-08-06T12:05:37;22.00;99.90
25951;DHT22;13748;52.240;6.002;2023-08-06T12:08:05;22.00;99.90
25951;DHT22;13748;52.240;6.002;2023-08-06T12:10:35;22.00;99.90
25951;DHT22;13748;52.240;6.002;2023-08-06T12:13:02;22.10;99.90
25951;DHT22;13748;52.240;6.002;2023-08-06T12:15:32;22.10;99.90
25951;DHT22;13748;52.240;6.002;2023-08-06T12:17:59;22.10;99.90
25951;DHT22;13748;52.240;6.002;2023-08-06T12:20:26;22.10;99.90
25951;DHT22;13748;52.240;6.002;2023-08-06T12:22:55;22.00;99.90
25951;DHT22;13748;52.240;6.002;2023-08-06T12:25:22;21.50;99.90
25951;DHT22;13748;52.240;6.002;2023-08-06T12:27:50;21.10;99.90
25951;DHT22;13748;52.240;6.002;2023-08-06T12:30:17;20.80;99.90
25951;DHT22;13748;52.240;6.002;2023-08-06T12:32:44;20.40;99.90
25951;DHT22;13748;52.240;6.002;2023-08-06T12:35:11;20.10;99.90
25951;DHT22;13748;52.240;6.002;2023-08-06T12:37:38;19.80;99.90
25951;DHT22;13748;52.240;6.002;2023-08-06T12:40:06;19.50;99.90
25951;DHT22;13748;52.240;6.002;2023-08-06T12:42:53;19.40;99.90
25951;DHT22;13748;52.240;6.002;2023-08-06T12:45:20;19.20;99.90
25951;DHT22;13748;52.240;6.002;2023-08-06T12:47:48;19.00;99.90
25951;DHT22;13748;52.240;6.002;2023-08-06T12:50:16;18.80;99.90
25951;DHT22;13748;52.240;6.002;2023-08-06T12:52:44;18.60;99.90
25951;DHT22;13748;52.240;6.002;2023-08-06T12:55:11;18.50;99.90
25951;DHT22;13748;52.240;6.002;2023-08-06T12:57:38;18.40;99.90
25951;DHT22;13748;52.240;6.002;2023-08-06T13:00:23;18.20;99.90
25951;DHT22;13748;52.240;6.002;2023-08-06T13:02:50;18.20;99.90
25951;DHT22;13748;52.240;6.002;2023-08-06T13:05:17;18.20;99.90
25951;DHT22;13748;52.240;6.002;2023-08-06T13:07:44;18.20;99.90
25951;DHT22;13748;52.240;6.002;2023-08-06T13:10:11;18.10;99.90
25951;DHT22;13748;52.240;6.002;2023-08-06T13:12:38;18.10;99.90
25951;DHT22;13748;52.240;6.002;2023-08-06T13:15:05;18.00;99.90
25951;DHT22;13748;52.240;6.002;2023-08-06T13:17:32;17.90;99.90
25951;DHT22;13748;52.240;6.002;2023-08-06T13:19:59;17.80;99.90
25951;DHT22;13748;52.240;6.002;2023-08-06T13:22:28;17.60;99.90
25951;DHT22;13748;52.240;6.002;2023-08-06T13:24:55;17.40;99.90
25951;DHT22;13748;52.240;6.002;2023-08-06T13:27:22;17.10;99.90
25951;DHT22;13748;52.240;6.002;2023-08-06T13:29:49;16.90;99.90
25951;DHT22;13748;52.240;6.002;2023-08-06T13:32:17;16.80;99.90
25951;DHT22;13748;52.240;6.002;2023-08-06T13:34:43;16.70;99.90
25951;DHT22;13748;52.240;6.002;2023-08-06T13:37:10;16.70;99.90
25951;DHT22;13748;52.240;6.002;2023-08-06T13:39:37;16.60;99.90
25951;DHT22;13748;52.240;6.002;2023-08-06T13:42:04;16.60;99.90
25951;DHT22;13748;52.240;6.002;2023-08-06T13:44:31;16.70;99.90
25951;DHT22;13748;52.240;6.002;2023-08-06T13:47:02;16.70;99.90
25951;DHT22;13748;52.240;6.002;2023-08-06T13:49:29;16.70;99.90
25951;DHT22;13748;52.240;6.002;2023-08-06T13:51:56;16.80;99.90
25951;DHT22;13748;52.240;6.002;2023-08-06T13:54:43;16.80;99.90
25951;DHT22;13748;52.240;6.002;2023-08-06T13:57:10;16.80;99.90
25951;DHT22;13748;52.240;6.002;2023-08-06T13:59:40;16.80;99.90
25951;DHT22;13748;52.240;6.002;2023-08-06T14:02:07;16.60;99.90
25951;DHT22;13748;52.240;6.002;2023-08-06T14:04:34;17.00;99.90
25951;DHT22;13748;52.240;6.002;2023-08-06T14:07:01;17.00;99.90
25951;DHT22;13748;52.240;6.002;2023-08-06T14:09:28;17.10;99.90
25951;DHT22;13748;52.240;6.002;2023-08-06T14:11:56;17.10;99.90
25951;DHT22;13748;52.240;6.002;2023-08-06T14:14:22;17.30;99.90
25951;DHT22;13748;52.240;6.002;2023-08-06T14:16:53;17.20;99.90
25951;DHT22;13748;52.240;6.002;2023-08-06T14:19:21;17.20;99.90
25951;DHT22;13748;52.240;6.002;2023-08-06T14:21:48;17.20;99.90
25951;DHT22;13748;52.240;6.002;2023-08-06T14:24:17;17.10;99.90
25951;DHT22;13748;52.240;6.002;2023-08-06T14:26:44;17.30;99.90
25951;DHT22;13748;52.240;6.002;2023-08-06T14:29:11;17.30;99.90
25951;DHT22;13748;52.240;6.002;2023-08-06T14:31:38;17.30;99.90
25951;DHT22;13748;52.240;6.002;2023-08-06T14:34:05;17.30;99.90
25951;DHT22;13748;52.240;6.002;2023-08-06T14:36:35;17.30;99.90
25951;DHT22;13748;52.240;6.002;2023-08-06T14:39:02;17.50;99.90
25951;DHT22;13748;52.240;6.002;2023-08-06T14:41:29;17.30;99.90
25951;DHT22;13748;52.240;6.002;2023-08-06T14:43:56;17.40;99.90
25951;DHT22;13748;52.240;6.002;2023-08-06T14:46:22;17.40;99.90
25951;DHT22;13748;52.240;6.002;2023-08-06T14:48:49;17.40;99.90
25951;DHT22;13748;52.240;6.002;2023-08-06T14:51:16;17.40;99.90
25951;DHT22;13748;52.240;6.002;2023-08-06T14:53:48;17.40;99.90
25951;DHT22;13748;52.240;6.002;2023-08-06T14:56:15;17.30;99.90
25951;DHT22;13748;52.240;6.002;2023-08-06T14:58:42;17.20;99.90
25951;DHT22;13748;52.240;6.002;2023-08-06T15:01:09;17.30;99.90
25951;DHT22;13748;52.240;6.002;2023-08-06T15:03:37;17.20;99.90
25951;DHT22;13748;52.240;6.002;2023-08-06T15:06:05;17.30;99.90
25951;DHT22;13748;52.240;6.002;2023-08-06T15:08:38;17.30;99.90
25951;DHT22;13748;52.240;6.002;2023-08-06T15:11:06;17.30;99.90
25951;DHT22;13748;52.240;6.002;2023-08-06T15:13:36;17.30;99.90
25951;DHT22;13748;52.240;6.002;2023-08-06T15:16:03;17.30;99.90
25951;DHT22;13748;52.240;6.002;2023-08-06T15:18:30;17.30;99.90
25951;DHT22;13748;52.240;6.002;2023-08-06T15:20:57;17.30;99.90
25951;DHT22;13748;52.240;6.002;2023-08-06T15:23:30;17.30;99.90
25951;DHT22;13748;52.240;6.002;2023-08-06T15:25:58;17.30;99.90
25951;DHT22;13748;52.240;6.002;2023-08-06T15:28:24;17.30;99.90
25951;DHT22;13748;52.240;6.002;2023-08-06T15:30:52;17.30;99.90
25951;DHT22;13748;52.240;6.002;2023-08-06T15:33:22;17.30;99.90
25951;DHT22;13748;52.240;6.002;2023-08-06T15:35:49;17.30;99.90
25951;DHT22;13748;52.240;6.002;2023-08-06T15:38:16;17.20;99.90
25951;DHT22;13748;52.240;6.002;2023-08-06T15:40:42;17.10;99.90
25951;DHT22;13748;52.240;6.002;2023-08-06T15:43:12;17.20;99.90
25951;DHT22;13748;52.240;6.002;2023-08-06T15:45:39;17.10;99.90
25951;DHT22;13748;52.240;6.002;2023-08-06T15:48:06;17.10;99.90